Time;durP1;ratioP1;P1;durP2;ratioP2;P2;SDS_P1;SDS_P2;PMS_P1;PMS_P2;Temp;Humidity;BMP_temperature;BMP_pressure;BME280_temperature;BME280_humidity;BME280_pressure;Samples;Min_cycle;Max_cycle;Signal;HPM_P1;HPM_P2
2023/12/13 00:02:11;;;;;;;62.70;36.45;;;12.90;99.90;;;;;;5028509;28;20049;-82
2023/12/13 00:04:37;;;;;;;50.53;31.77;;;14.40;99.90;;;;;;5003626;28;20167;-79
2023/12/13 00:07:03;;;;;;;64.57;33.28;;;14.10;99.90;;;;;;4980510;28;20041;-80
2023/12/13 00:09:29;;;;;;;67.93;36.13;;;12.90;99.90;;;;;;4999584;28;20044;-82
2023/12/13 00:11:54;;;;;;;65.22;34.85;;;14.50;99.90;;;;;;5000827;28;20041;-79
2023/12/13 00:14:22;;;;;;;62.22;35.13;;;13.40;99.90;;;;;;5011129;28;20041;-80
2023/12/13 00:16:48;;;;;;;54.53;34.05;;;14.30;99.90;;;;;;5011948;28;20528;-79
2023/12/13 00:19:14;;;;;;;58.17;35.47;;;13.60;99.90;;;;;;5012065;28;20038;-82
2023/12/13 00:21:39;;;;;;;75.35;37.53;;;13.00;99.90;;;;;;5027428;28;20041;-81
2023/12/13 00:24:06;;;;;;;61.03;33.60;;;14.30;99.90;;;;;;5002609;28;20045;-81
2023/12/13 00:26:31;;;;;;;54.00;30.88;;;14.40;99.90;;;;;;5023030;28;20381;-79
2023/12/13 00:28:57;;;;;;;59.47;32.47;;;13.30;99.90;;;;;;5030878;28;20033;-78
2023/12/13 00:31:23;;;;;;;51.90;31.50;;;12.90;99.90;;;;;;5004538;28;20385;-80
2023/12/13 00:33:48;;;;;;;48.63;29.38;;;12.90;99.90;;;;;;4997026;28;20478;-80
2023/12/13 00:36:14;;;;;;;48.20;29.52;;;13.50;99.90;;;;;;5003031;28;20440;-81
2023/12/13 00:38:40;;;;;;;55.72;32.15;;;13.10;99.90;;;;;;4998947;28;20052;-80
2023/12/13 00:41:06;;;;;;;54.25;30.38;;;13.70;99.90;;;;;;5016068;28;20148;-78
2023/12/13 00:43:32;;;;;;;45.05;27.02;;;14.30;99.90;;;;;;5033834;28;20052;-81
2023/12/13 00:45:57;;;;;;;41.63;25.95;;;14.10;99.90;;;;;;5012158;28;20489;-81
2023/12/13 00:48:23;;;;;;;40.53;23.30;;;12.90;99.90;;;;;;5015477;28;20047;-81
2023/12/13 00:50:49;;;;;;;30.02;21.63;;;12.80;99.90;;;;;;5018991;28;20064;-80
2023/12/13 00:53:14;;;;;;;28.75;18.92;;;13.80;99.90;;;;;;5032156;28;20053;-80
2023/12/13 00:55:40;;;;;;;28.67;17.75;;;13.70;99.90;;;;;;5032243;28;20045;-80
2023/12/13 00:58:06;;;;;;;30.20;19.13;;;12.70;99.90;;;;;;5007765;28;20052;-78
2023/12/13 01:00:31;;;;;;;23.23;16.77;;;12.90;99.90;;;;;;5004846;28;20053;-80
2023/12/13 01:02:57;;;;;;;27.90;17.08;;;13.40;99.90;;;;;;5021597;28;20044;-82
2023/12/13 01:05:23;;;;;;;28.60;17.95;;;13.70;99.90;;;;;;5022069;28;20037;-80
2023/12/13 01:07:49;;;;;;;28.02;17.33;;;13.70;99.90;;;;;;4994072;28;20033;-78
2023/12/13 01:10:16;;;;;;;28.05;18.52;;;12.90;99.90;;;;;;5001373;28;20052;-77
2023/12/13 01:12:43;;;;;;;28.00;18.70;;;13.10;99.90;;;;;;5000793;28;20073;-80
2023/12/13 01:15:13;;;;;;;34.85;21.70;;;12.70;99.90;;;;;;5004577;28;20128;-77
2023/12/13 01:17:39;;;;;;;37.17;22.58;;;12.80;99.90;;;;;;5000287;28;20076;-79
2023/12/13 01:20:11;;;;;;;39.20;23.35;;;13.40;99.90;;;;;;4987127;28;20540;-76
2023/12/13 01:22:37;;;;;;;46.30;26.05;;;12.90;99.90;;;;;;5019229;28;20037;-77
2023/12/13 01:25:03;;;;;;;50.92;27.83;;;14.10;99.90;;;;;;5025928;28;20040;-77
2023/12/13 01:27:30;;;;;;;58.33;29.67;;;12.80;99.90;;;;;;4996905;28;20098;-79
2023/12/13 01:29:55;;;;;;;65.25;30.58;;;14.40;99.90;;;;;;4983694;28;20102;-75
2023/12/13 01:32:21;;;;;;;64.78;31.58;;;13.00;99.90;;;;;;5007205;28;20040;-80
2023/12/13 01:34:47;;;;;;;59.90;30.77;;;13.20;99.90;;;;;;5000318;28;20051;-80
2023/12/13 01:37:13;;;;;;;69.82;32.47;;;12.90;99.90;;;;;;5003086;28;20040;-77
2023/12/13 01:39:41;;;;;;;76.45;35.03;;;13.80;99.90;;;;;;5000870;28;20047;-77
2023/12/13 01:42:08;;;;;;;69.15;31.63;;;13.80;99.90;;;;;;5002224;28;20037;-80
2023/12/13 01:44:34;;;;;;;67.43;34.55;;;13.80;99.90;;;;;;5003582;28;20046;-79
2023/12/13 01:47:02;;;;;;;83.47;36.42;;;13.90;99.90;;;;;;5003758;28;20108;-79
2023/12/13 01:49:28;;;;;;;62.47;32.92;;;14.30;99.90;;;;;;5001860;28;21608;-79
2023/12/13 01:51:54;;;;;;;85.07;35.28;;;14.40;99.90;;;;;;5001492;28;20065;-79
2023/12/13 01:54:21;;;;;;;69.45;35.92;;;13.10;99.90;;;;;;5008436;28;20041;-78
2023/12/13 01:56:51;;;;;;;65.88;32.47;;;13.20;99.90;;;;;;4999271;28;20063;-79
2023/12/13 01:59:17;;;;;;;66.50;32.45;;;14.50;99.90;;;;;;5029191;28;20073;-78
2023/12/13 02:01:43;;;;;;;61.92;30.42;;;14.50;99.90;;;;;;5030779;28;20061;-81
2023/12/13 02:04:14;;;;;;;82.05;35.92;;;13.20;99.90;;;;;;5031362;28;20067;-78
2023/12/13 02:06:42;;;;;;;77.13;36.00;;;14.30;99.90;;;;;;5006921;28;20069;-78
2023/12/13 02:09:08;;;;;;;106.82;39.00;;;14.50;99.90;;;;;;5013340;28;20102;-75
2023/12/13 02:11:34;;;;;;;79.55;35.13;;;13.20;99.90;;;;;;4999749;28;20072;-79
2023/12/13 02:14:02;;;;;;;61.80;31.13;;;14.20;99.90;;;;;;5016740;28;20033;-81
2023/12/13 02:16:28;;;;;;;68.68;33.55;;;14.40;99.90;;;;;;5030085;28;20042;-80
2023/12/13 02:18:53;;;;;;;80.60;37.78;;;14.50;99.90;;;;;;4993615;28;20056;-76
2023/12/13 02:21:19;;;;;;;88.30;39.38;;;12.90;99.90;;;;;;5028918;28;20040;-77
2023/12/13 02:23:46;;;;;;;74.22;35.72;;;13.20;99.90;;;;;;5017484;28;20048;-81
2023/12/13 02:26:12;;;;;;;71.93;36.72;;;13.10;99.90;;;;;;4999964;28;20041;-81
2023/12/13 02:28:38;;;;;;;88.45;39.00;;;14.00;99.90;;;;;;4980937;28;20470;-81
2023/12/13 02:31:04;;;;;;;85.30;37.58;;;14.40;99.90;;;;;;4995903;28;20053;-76
2023/12/13 02:33:30;;;;;;;88.18;40.22;;;13.90;99.90;;;;;;5009071;28;20056;-79
2023/12/13 02:35:58;;;;;;;75.20;36.30;;;13.00;99.90;;;;;;5014173;28;20041;-79
2023/12/13 02:38:24;;;;;;;93.50;41.28;;;13.10;99.90;;;;;;5012383;28;20037;-78
2023/12/13 02:40:50;;;;;;;99.25;42.10;;;13.20;99.90;;;;;;5005513;28;20033;-79
2023/12/13 02:43:16;;;;;;;85.43;39.45;;;13.50;99.90;;;;;;5006856;28;20041;-78
2023/12/13 02:45:42;;;;;;;96.00;40.88;;;13.40;99.90;;;;;;5005873;28;20380;-77
2023/12/13 02:48:07;;;;;;;83.60;37.33;;;14.20;99.90;;;;;;5020347;28;20040;-80
2023/12/13 02:50:39;;;;;;;109.15;41.83;;;13.20;99.90;;;;;;5013113;28;20113;-79
2023/12/13 02:53:06;;;;;;;93.78;42.05;;;13.10;99.90;;;;;;5036453;28;20044;-80
2023/12/13 02:55:32;;;;;;;88.90;42.13;;;13.20;99.90;;;;;;5022857;28;20040;-78
2023/12/13 02:57:59;;;;;;;96.20;41.83;;;13.10;99.90;;;;;;5034695;28;20124;-77
2023/12/13 03:00:24;;;;;;;99.25;42.88;;;13.10;99.90;;;;;;5033024;28;20033;-83
2023/12/13 03:02:50;;;;;;;106.63;42.05;;;13.10;99.90;;;;;;4993475;28;20385;-76
2023/12/13 03:05:16;;;;;;;108.28;43.67;;;14.30;99.90;;;;;;5021651;28;20120;-78
2023/12/13 03:07:41;;;;;;;83.53;38.78;;;14.60;99.90;;;;;;5017053;28;20056;-80
2023/12/13 03:10:08;;;;;;;93.47;39.33;;;14.40;99.90;;;;;;5019023;28;20036;-81
2023/12/13 03:12:34;;;;;;;104.30;43.30;;;14.60;99.90;;;;;;5011064;28;20075;-79
2023/12/13 03:15:00;;;;;;;104.32;42.97;;;13.00;99.90;;;;;;5011553;28;20057;-79
2023/12/13 03:17:25;;;;;;;87.25;40.92;;;14.20;99.90;;;;;;5033054;28;20103;-79
2023/12/13 03:19:51;;;;;;;77.93;36.92;;;14.50;99.90;;;;;;5032374;28;20072;-81
2023/12/13 03:22:17;;;;;;;94.40;39.92;;;14.40;99.90;;;;;;5006125;28;20037;-78
2023/12/13 03:24:42;;;;;;;72.15;35.17;;;14.00;99.90;;;;;;5002973;28;20232;-77
2023/12/13 03:27:08;;;;;;;83.32;37.92;;;13.00;99.90;;;;;;5016530;28;20036;-77
2023/12/13 03:29:34;;;;;;;95.22;40.70;;;14.50;99.90;;;;;;5027058;28;20375;-77
2023/12/13 03:31:59;;;;;;;92.47;41.40;;;14.40;99.90;;;;;;5014249;28;20048;-78
2023/12/13 03:34:25;;;;;;;73.68;37.25;;;14.50;99.90;;;;;;5030704;28;20505;-79
2023/12/13 03:36:51;;;;;;;67.13;33.15;;;13.90;99.90;;;;;;5017299;28;20048;-76
2023/12/13 03:39:17;;;;;;;73.97;36.72;;;13.00;99.90;;;;;;5035187;28;20033;-79
2023/12/13 03:41:42;;;;;;;81.13;35.75;;;13.60;99.90;;;;;;5002354;28;20127;-78
2023/12/13 03:44:08;;;;;;;93.85;39.90;;;13.00;99.90;;;;;;5030936;28;20033;-77
2023/12/13 03:46:34;;;;;;;87.75;39.03;;;13.20;99.90;;;;;;5003267;28;20033;-75
2023/12/13 03:49:00;;;;;;;72.40;36.05;;;13.70;99.90;;;;;;5016090;28;20049;-80
2023/12/13 03:51:25;;;;;;;75.57;35.45;;;14.30;99.90;;;;;;5017918;28;20060;-79
2023/12/13 03:53:51;;;;;;;82.05;37.53;;;14.20;99.90;;;;;;4995661;28;20044;-77
2023/12/13 03:56:17;;;;;;;84.80;37.95;;;13.20;99.90;;;;;;5013677;28;20115;-81
2023/12/13 03:58:42;;;;;;;75.60;37.05;;;14.40;99.90;;;;;;4999536;28;20045;-79
2023/12/13 04:01:09;;;;;;;81.32;36.38;;;13.10;99.90;;;;;;5017332;28;20033;-77
2023/12/13 04:03:34;;;;;;;64.15;32.22;;;13.90;99.90;;;;;;4997612;28;20449;-82
2023/12/13 04:06:01;;;;;;;83.97;36.10;;;13.20;99.90;;;;;;5009466;28;20056;-80
2023/12/13 04:08:27;;;;;;;87.43;37.58;;;13.00;99.90;;;;;;5016589;28;20068;-81
2023/12/13 04:10:52;;;;;;;80.05;34.80;;;14.40;99.90;;;;;;4994468;28;20085;-78
2023/12/13 04:13:18;;;;;;;78.28;35.78;;;13.10;99.90;;;;;;5027465;28;20045;-78
2023/12/13 04:15:44;;;;;;;76.97;35.35;;;12.90;99.90;;;;;;5014745;28;20052;-80
2023/12/13 04:18:10;;;;;;;90.93;35.78;;;13.20;99.90;;;;;;5022940;28;20045;-79
2023/12/13 04:20:36;;;;;;;86.50;36.58;;;13.10;99.90;;;;;;5020850;28;20044;-77
2023/12/13 04:23:01;;;;;;;76.03;33.75;;;13.00;99.90;;;;;;4997290;28;20090;-80
2023/12/13 04:25:27;;;;;;;89.47;37.55;;;14.00;99.90;;;;;;5014060;28;20040;-78
2023/12/13 04:27:53;;;;;;;81.75;36.78;;;14.10;99.90;;;;;;5001888;28;20120;-78
2023/12/13 04:30:18;;;;;;;85.22;36.80;;;13.10;99.90;;;;;;5003607;28;20036;-79
2023/12/13 04:32:44;;;;;;;82.75;34.88;;;14.20;99.90;;;;;;5013596;28;20074;-80
2023/12/13 04:35:10;;;;;;;91.50;38.13;;;13.10;99.90;;;;;;5022002;28;20381;-79
2023/12/13 04:37:36;;;;;;;77.95;32.78;;;12.90;99.90;;;;;;5019918;28;20040;-79
2023/12/13 04:40:03;;;;;;;65.53;33.85;;;13.70;99.90;;;;;;5019524;28;20048;-80
2023/12/13 04:42:28;;;;;;;71.55;34.53;;;13.90;99.90;;;;;;5019788;28;20045;-78
2023/12/13 04:44:55;;;;;;;63.38;31.83;;;14.40;99.90;;;;;;5032433;28;20087;-79
2023/12/13 04:47:21;;;;;;;63.38;31.00;;;14.00;99.90;;;;;;5021889;28;20076;-82
2023/12/13 04:49:47;;;;;;;74.65;34.90;;;13.80;99.90;;;;;;5020307;28;20086;-79
2023/12/13 04:52:12;;;;;;;97.00;37.42;;;14.20;99.90;;;;;;5019642;28;20504;-81
2023/12/13 04:54:38;;;;;;;70.25;33.33;;;14.40;99.90;;;;;;5018350;28;20045;-79
2023/12/13 04:57:07;;;;;;;94.90;36.50;;;12.90;99.90;;;;;;5019726;28;20040;-83
2023/12/13 04:59:33;;;;;;;92.97;35.97;;;12.90;99.90;;;;;;5020066;28;20044;-82
2023/12/13 05:01:58;;;;;;;98.85;38.17;;;14.40;99.90;;;;;;5032690;28;20037;-81
2023/12/13 05:04:24;;;;;;;95.15;37.50;;;13.20;99.90;;;;;;5026022;28;20128;-79
2023/12/13 05:06:50;;;;;;;116.65;39.33;;;14.30;99.90;;;;;;5040735;28;20374;-78
2023/12/13 05:09:15;;;;;;;97.47;38.13;;;12.90;99.90;;;;;;5019669;28;20039;-78
2023/12/13 05:11:41;;;;;;;95.45;37.25;;;13.80;99.90;;;;;;5036068;28;20045;-82
2023/12/13 05:14:07;;;;;;;88.05;35.10;;;14.40;99.90;;;;;;5020027;28;20132;-80
2023/12/13 05:16:33;;;;;;;91.18;37.72;;;13.60;99.90;;;;;;5033059;28;20041;-80
2023/12/13 05:19:00;;;;;;;95.95;36.33;;;13.20;99.90;;;;;;5022237;28;20052;-79
2023/12/13 05:21:26;;;;;;;81.05;32.17;;;14.20;99.90;;;;;;5018653;28;20048;-82
2023/12/13 05:23:51;;;;;;;90.03;35.85;;;14.00;99.90;;;;;;5015311;28;20037;-81
2023/12/13 05:26:17;;;;;;;70.95;32.38;;;14.50;99.90;;;;;;5023038;28;20033;-82
2023/12/13 05:28:43;;;;;;;85.32;35.47;;;14.30;99.90;;;;;;5002016;28;20055;-82
2023/12/13 05:31:24;;;;;;;92.70;35.55;;;14.20;99.90;;;;;;5015600;28;20099;-83
2023/12/13 05:33:50;;;;;;;83.50;34.97;;;13.00;99.90;;;;;;5006671;28;20052;-81
2023/12/13 05:36:16;;;;;;;109.65;37.20;;;14.50;99.90;;;;;;5018347;28;20040;-80
2023/12/13 05:38:46;;;;;;;92.85;36.33;;;13.60;99.90;;;;;;5005542;28;20059;-82
2023/12/13 05:41:12;;;;;;;94.13;35.78;;;13.20;99.90;;;;;;5015142;28;20119;-80
2023/12/13 05:43:38;;;;;;;85.55;34.33;;;14.20;99.90;;;;;;5026995;28;20493;-79
2023/12/13 05:46:05;;;;;;;90.25;34.95;;;14.20;99.90;;;;;;5020738;28;20121;-84
2023/12/13 05:48:31;;;;;;;80.85;33.40;;;12.90;99.90;;;;;;5015664;28;20045;-80
2023/12/13 05:51:00;;;;;;;74.15;33.22;;;13.30;99.90;;;;;;5011932;28;20049;-82
2023/12/13 05:53:27;;;;;;;81.50;34.05;;;13.80;99.90;;;;;;5030985;28;20072;-83
2023/12/13 05:55:53;;;;;;;78.63;34.08;;;12.90;99.90;;;;;;4999003;28;20604;-80
2023/12/13 05:58:19;;;;;;;64.68;31.25;;;14.30;99.90;;;;;;4996887;28;20030;-79
2023/12/13 06:00:44;;;;;;;71.15;33.80;;;13.30;99.90;;;;;;5014262;28;20457;-81
2023/12/13 06:03:10;;;;;;;79.72;35.30;;;14.50;99.90;;;;;;5032223;28;20037;-81
2023/12/13 06:05:36;;;;;;;86.53;35.20;;;13.60;99.90;;;;;;5020497;28;20110;-84
2023/12/13 06:08:02;;;;;;;79.57;33.17;;;14.50;99.90;;;;;;5031023;28;20045;-78
2023/12/13 06:10:30;;;;;;;78.70;33.78;;;13.30;99.90;;;;;;5019863;28;20037;-80
2023/12/13 06:13:00;;;;;;;73.30;35.22;;;13.20;99.90;;;;;;4983554;28;20041;-78
2023/12/13 06:15:25;;;;;;;76.80;35.08;;;13.50;99.90;;;;;;5017073;28;20044;-81
2023/12/13 06:17:51;;;;;;;72.05;34.30;;;13.20;99.90;;;;;;5020875;28;20047;-77
2023/12/13 06:20:17;;;;;;;79.50;35.88;;;14.30;99.90;;;;;;4995617;28;20079;-76
2023/12/13 06:22:42;;;;;;;72.10;34.58;;;13.30;99.90;;;;;;5025230;28;20071;-79
2023/12/13 06:25:09;;;;;;;75.13;35.05;;;14.50;99.90;;;;;;5014992;28;20033;-79
2023/12/13 06:27:34;;;;;;;89.13;37.53;;;13.30;99.90;;;;;;5028168;28;20097;-84
2023/12/13 06:30:00;;;;;;;63.17;34.42;;;14.50;99.90;;;;;;5012673;28;20041;-81
2023/12/13 06:32:26;;;;;;;68.10;34.95;;;13.40;99.90;;;;;;5006654;28;20504;-79
2023/12/13 06:34:57;;;;;;;67.78;34.50;;;13.00;99.90;;;;;;5018211;28;20037;-77
2023/12/13 06:37:23;;;;;;;78.43;35.33;;;14.40;99.90;;;;;;5018742;28;20045;-77
2023/12/13 06:39:49;;;;;;;75.65;35.38;;;14.20;99.90;;;;;;5022476;28;20090;-83
2023/12/13 06:42:15;;;;;;;80.60;35.33;;;14.50;99.90;;;;;;5019295;28;20452;-79
2023/12/13 06:44:41;;;;;;;82.18;35.40;;;14.50;99.90;;;;;;5014313;28;20044;-80
2023/12/13 06:47:07;;;;;;;87.57;38.03;;;14.40;99.90;;;;;;5021864;28;20037;-80
2023/12/13 06:49:34;;;;;;;71.00;34.95;;;14.50;99.90;;;;;;5017001;28;20103;-78
2023/12/13 06:52:01;;;;;;;94.43;38.17;;;14.40;99.90;;;;;;5020460;28;20095;-77
2023/12/13 06:54:30;;;;;;;78.45;35.13;;;13.00;99.90;;;;;;4996727;28;20033;-82
2023/12/13 06:56:56;;;;;;;83.13;35.92;;;13.00;99.90;;;;;;5003577;28;20124;-82
2023/12/13 06:59:22;;;;;;;79.82;34.70;;;14.10;99.90;;;;;;5033248;28;20090;-83
2023/12/13 07:01:47;;;;;;;72.28;35.00;;;13.00;99.90;;;;;;5019086;28;20433;-80
2023/12/13 07:04:13;;;;;;;69.57;35.60;;;13.20;99.90;;;;;;5015697;28;20091;-84
2023/12/13 07:06:40;;;;;;;64.22;31.27;;;13.30;99.90;;;;;;5003418;28;20731;-81
2023/12/13 07:09:05;;;;;;;67.18;33.50;;;13.50;99.90;;;;;;5029952;28;20969;-78
2023/12/13 07:11:31;;;;;;;76.15;36.50;;;14.40;99.90;;;;;;5010764;28;20048;-80
2023/12/13 07:13:57;;;;;;;88.18;38.42;;;13.00;99.90;;;;;;5000552;28;20063;-81
2023/12/13 07:16:22;;;;;;;69.68;33.67;;;13.40;99.90;;;;;;5012908;28;20041;-80
2023/12/13 07:18:48;;;;;;;82.72;35.95;;;13.50;99.90;;;;;;5019673;28;20048;-79
2023/12/13 07:21:14;;;;;;;73.63;35.85;;;13.20;99.90;;;;;;5004965;28;20503;-80
2023/12/13 07:23:42;;;;;;;79.20;36.53;;;14.40;99.90;;;;;;5003979;28;20481;-79
2023/12/13 07:26:08;;;;;;;78.20;36.00;;;13.00;99.90;;;;;;5010315;28;20039;-78
2023/12/13 07:28:33;;;;;;;69.78;34.45;;;13.60;99.90;;;;;;5024458;28;20029;-81
2023/12/13 07:31:05;;;;;;;82.70;36.88;;;14.40;99.90;;;;;;5028637;28;20072;-78
2023/12/13 07:33:34;;;;;;;59.72;33.65;;;14.40;99.90;;;;;;5022047;28;20040;-80
2023/12/13 07:36:01;;;;;;;76.00;36.28;;;13.20;99.90;;;;;;5038451;28;20045;-68
2023/12/13 07:38:26;;;;;;;90.38;39.08;;;13.30;99.90;;;;;;5038426;28;20040;-78
2023/12/13 07:40:53;;;;;;;71.95;36.40;;;14.50;99.90;;;;;;5015442;28;20075;-79
2023/12/13 07:43:19;;;;;;;79.93;37.33;;;14.10;99.90;;;;;;5037408;28;20041;-81
2023/12/13 07:45:51;;;;;;;87.00;39.92;;;13.00;99.90;;;;;;5016769;28;20037;-81
2023/12/13 07:48:18;;;;;;;71.57;35.65;;;13.20;99.90;;;;;;5019903;28;20041;-80
2023/12/13 07:50:44;;;;;;;70.03;36.05;;;13.20;99.90;;;;;;5038280;28;20424;-79
2023/12/13 07:53:10;;;;;;;81.68;36.92;;;14.40;99.90;;;;;;5014665;28;20064;-85
2023/12/13 07:55:35;;;;;;;82.80;38.25;;;13.50;99.90;;;;;;5015094;28;20041;-81
2023/12/13 07:58:01;;;;;;;77.38;37.92;;;13.20;99.90;;;;;;5018257;28;20431;-82
2023/12/13 08:00:27;;;;;;;67.45;36.35;;;14.60;99.90;;;;;;4981568;28;20045;-78
2023/12/13 08:02:54;;;;;;;65.40;36.50;;;14.10;99.90;;;;;;5031720;28;20041;-79
2023/12/13 08:05:20;;;;;;;69.95;36.58;;;14.30;99.90;;;;;;4998722;28;20362;-80
2023/12/13 08:07:46;;;;;;;75.05;37.08;;;14.60;99.90;;;;;;5025938;28;20090;-81
2023/12/13 08:10:12;;;;;;;69.68;36.72;;;14.10;99.90;;;;;;5004360;28;20445;-83
2023/12/13 08:12:41;;;;;;;78.30;38.97;;;14.50;99.90;;;;;;5003202;28;20064;-79
2023/12/13 08:15:07;;;;;;;79.10;38.25;;;14.60;99.90;;;;;;5021733;28;20044;-79
2023/12/13 08:17:33;;;;;;;70.43;36.53;;;14.20;99.90;;;;;;5006704;28;20043;-80
2023/12/13 08:20:00;;;;;;;76.05;39.70;;;14.70;99.90;;;;;;5001605;28;20048;-81
2023/12/13 08:22:26;;;;;;;87.82;40.53;;;14.40;99.90;;;;;;5002174;28;20061;-82
2023/12/13 08:24:52;;;;;;;77.22;38.60;;;13.60;99.90;;;;;;5036478;28;20069;-79
2023/12/13 08:27:17;;;;;;;73.50;38.75;;;14.40;99.90;;;;;;5036427;28;20086;-80
2023/12/13 08:29:43;;;;;;;77.43;39.05;;;13.10;99.90;;;;;;5018974;28;20127;-81
2023/12/13 08:32:09;;;;;;;76.38;40.25;;;14.60;99.90;;;;;;5035963;28;20047;-81
2023/12/13 08:34:35;;;;;;;86.45;40.90;;;13.20;99.90;;;;;;5026338;28;20044;-80
2023/12/13 08:37:00;;;;;;;68.40;37.75;;;13.20;99.90;;;;;;5007061;28;20049;-82
2023/12/13 08:39:27;;;;;;;91.38;41.30;;;13.30;99.90;;;;;;5019113;28;20048;-78
2023/12/13 08:41:53;;;;;;;84.93;40.17;;;14.70;99.90;;;;;;5040884;28;20048;-82
2023/12/13 08:44:18;;;;;;;91.70;42.13;;;14.20;99.90;;;;;;4999317;28;20029;-83
2023/12/13 08:46:45;;;;;;;89.22;40.35;;;14.00;99.90;;;;;;5023325;28;20082;-80
2023/12/13 08:49:11;;;;;;;85.15;40.92;;;13.90;99.90;;;;;;5020968;28;20127;-79
2023/12/13 08:51:37;;;;;;;98.35;42.42;;;14.00;99.90;;;;;;5018604;28;20068;-78
2023/12/13 08:54:04;;;;;;;78.85;41.28;;;13.50;99.90;;;;;;5033410;28;20099;-80
2023/12/13 08:56:31;;;;;;;97.63;43.78;;;14.10;99.90;;;;;;5004704;28;20056;-81
2023/12/13 08:58:56;;;;;;;89.15;41.88;;;14.80;99.90;;;;;;5019231;28;20578;-80
2023/12/13 09:01:23;;;;;;;108.82;44.05;;;14.60;99.90;;;;;;5005391;28;20047;-79
2023/12/13 09:03:50;;;;;;;84.95;41.67;;;14.10;99.90;;;;;;5017656;28;20031;-79
2023/12/13 09:06:16;;;;;;;79.63;40.88;;;14.80;99.90;;;;;;5015358;28;20041;-82
2023/12/13 09:08:42;;;;;;;100.80;41.55;;;14.60;99.90;;;;;;5031559;28;20028;-80
2023/12/13 09:11:08;;;;;;;84.75;40.63;;;13.40;99.90;;;;;;5022728;28;20068;-80
2023/12/13 09:13:34;;;;;;;73.75;39.38;;;14.70;99.90;;;;;;5020595;28;20536;-83
2023/12/13 09:16:00;;;;;;;83.30;40.58;;;13.60;99.90;;;;;;5022869;28;20105;-83
2023/12/13 09:18:25;;;;;;;77.65;40.45;;;14.10;99.90;;;;;;5025708;28;20100;-84
2023/12/13 09:20:51;;;;;;;89.97;41.40;;;13.50;99.90;;;;;;5045959;28;20040;-82
2023/12/13 09:23:24;;;;;;;74.60;39.58;;;13.30;99.90;;;;;;5021419;28;20048;-82
2023/12/13 09:25:50;;;;;;;102.60;42.85;;;13.90;99.90;;;;;;5049042;28;20060;-82
2023/12/13 09:28:17;;;;;;;92.13;41.05;;;14.90;99.90;;;;;;5040202;28;20099;-83
2023/12/13 09:30:43;;;;;;;110.30;43.35;;;13.70;99.90;;;;;;5043503;28;20044;-82
2023/12/13 09:33:11;;;;;;;95.47;41.83;;;14.80;99.90;;;;;;5005593;28;20045;-85
2023/12/13 09:35:37;;;;;;;112.00;43.00;;;13.40;99.90;;;;;;5020201;28;20047;-84
2023/12/13 09:38:06;;;;;;;109.82;43.65;;;13.80;99.90;;;;;;5020658;28;20040;-81
2023/12/13 09:40:32;;;;;;;86.47;40.05;;;14.00;99.90;;;;;;5029813;28;20070;-82
2023/12/13 09:43:00;;;;;;;102.18;42.20;;;13.60;99.90;;;;;;5018645;28;20037;-85
2023/12/13 09:45:28;;;;;;;80.88;39.35;;;15.00;99.90;;;;;;5024977;28;20040;-83
2023/12/13 09:47:55;;;;;;;90.30;39.70;;;15.00;99.90;;;;;;5044047;28;20044;-83
2023/12/13 09:50:26;;;;;;;90.32;39.90;;;15.10;99.90;;;;;;5022995;28;20405;-86
2023/12/13 09:52:53;;;;;;;90.20;40.38;;;14.90;99.90;;;;;;5022445;28;20049;-82
2023/12/13 09:55:20;;;;;;;92.25;41.30;;;15.10;99.90;;;;;;5019223;28;20377;-81
2023/12/13 09:57:46;;;;;;;112.25;43.15;;;15.20;99.90;;;;;;5019454;28;20128;-81
2023/12/13 10:00:12;;;;;;;98.78;40.75;;;15.30;99.90;;;;;;5006084;28;20175;-83
2023/12/13 10:02:38;;;;;;;95.80;42.08;;;14.50;99.90;;;;;;5047239;28;20037;-84
2023/12/13 10:05:05;;;;;;;97.28;41.45;;;15.00;99.90;;;;;;5003437;28;20507;-82
2023/12/13 10:07:31;;;;;;;88.35;41.50;;;15.60;99.90;;;;;;5019780;28;20040;-80
2023/12/13 10:09:57;;;;;;;112.30;44.13;;;15.60;99.90;;;;;;5018630;28;20036;-80
2023/12/13 10:12:24;;;;;;;77.60;37.83;;;15.70;99.90;;;;;;5039361;28;20037;-84
2023/12/13 10:14:50;;;;;;;79.22;37.78;;;15.40;99.90;;;;;;5039220;28;20094;-82
2023/12/13 10:17:20;;;;;;;78.05;36.78;;;15.30;99.90;;;;;;5000147;28;20053;-82
2023/12/13 10:19:46;;;;;;;78.90;37.35;;;14.30;99.90;;;;;;5022822;28;20043;-81
2023/12/13 10:22:13;;;;;;;77.85;38.00;;;14.20;99.90;;;;;;5034907;28;20040;-83
2023/12/13 10:24:41;;;;;;;78.35;36.75;;;14.30;99.90;;;;;;5042111;28;20035;-82
2023/12/13 10:27:06;;;;;;;74.57;36.13;;;14.80;99.90;;;;;;5018086;28;20065;-84
2023/12/13 10:29:32;;;;;;;66.72;33.28;;;15.80;99.90;;;;;;5001987;28;20441;-84
2023/12/13 10:31:59;;;;;;;71.88;34.42;;;14.90;99.90;;;;;;5007962;28;20047;-82
2023/12/13 10:34:25;;;;;;;67.15;33.00;;;14.30;99.90;;;;;;5013354;28;20090;-81
2023/12/13 10:36:50;;;;;;;68.00;32.63;;;15.00;99.90;;;;;;5033475;28;20056;-84
2023/12/13 10:39:19;;;;;;;62.50;34.05;;;15.00;99.90;;;;;;5014214;28;20041;-81
2023/12/13 10:41:48;;;;;;;63.70;36.25;;;14.40;99.90;;;;;;4998752;28;20042;-84
2023/12/13 10:44:16;;;;;;;59.33;31.88;;;14.20;99.90;;;;;;5021334;28;20040;-83
2023/12/13 10:46:46;;;;;;;65.18;31.20;;;15.30;99.90;;;;;;5015977;28;20034;-85
2023/12/13 10:49:16;;;;;;;59.22;31.80;;;14.20;99.90;;;;;;5003739;28;20046;-81
2023/12/13 10:51:43;;;;;;;74.88;33.45;;;15.60;99.90;;;;;;5023564;28;20509;-81
2023/12/13 10:54:12;;;;;;;57.83;32.75;;;15.60;99.90;;;;;;5015689;28;20088;-81
2023/12/13 10:56:39;;;;;;;61.15;31.23;;;15.20;99.90;;;;;;5002160;28;20037;-83
2023/12/13 10:59:06;;;;;;;58.42;31.88;;;15.80;99.90;;;;;;5029586;28;20041;-79
2023/12/13 11:01:32;;;;;;;64.65;31.95;;;15.30;99.90;;;;;;5019556;28;20049;-79
2023/12/13 11:04:12;;;;;;;65.05;31.25;;;15.50;99.90;;;;;;5027166;28;20045;-84
2023/12/13 11:06:38;;;;;;;57.63;29.40;;;15.40;99.90;;;;;;5016262;28;20049;-82
2023/12/13 11:09:17;;;;;;;60.53;30.30;;;15.40;99.90;;;;;;4998055;28;20081;-81
2023/12/13 11:11:43;;;;;;;60.55;29.75;;;14.30;99.90;;;;;;5046417;28;20037;-79
2023/12/13 11:14:11;;;;;;;64.82;31.85;;;15.40;99.90;;;;;;4998575;28;20217;-84
2023/12/13 11:16:45;;;;;;;54.88;31.45;;;15.20;99.90;;;;;;5022829;28;20044;-82
2023/12/13 11:19:15;;;;;;;55.35;29.15;;;15.50;99.90;;;;;;4997616;28;20126;-80
2023/12/13 11:21:45;;;;;;;57.67;30.58;;;14.50;99.90;;;;;;5001931;28;20129;-83
2023/12/13 11:24:13;;;;;;;55.28;28.35;;;14.00;99.90;;;;;;4997581;28;20052;-80
2023/12/13 11:26:42;;;;;;;57.78;27.52;;;15.40;99.90;;;;;;5025377;28;20041;-81
2023/12/13 11:29:21;;;;;;;52.40;26.95;;;14.30;99.90;;;;;;5016746;28;20040;-79
2023/12/13 11:31:56;;;;;;;59.40;28.45;;;14.90;99.90;;;;;;5020217;28;20033;-80
2023/12/13 11:34:35;;;;;;;55.40;28.00;;;15.40;99.90;;;;;;5031699;28;20399;-79
2023/12/13 11:37:06;;;;;;;53.90;27.92;;;15.10;99.90;;;;;;4999574;28;20054;-82
2023/12/13 11:39:34;;;;;;;54.78;26.88;;;14.10;99.90;;;;;;5048643;28;20048;-79
2023/12/13 11:42:02;;;;;;;55.45;26.23;;;14.80;99.90;;;;;;5020509;28;20041;-82
2023/12/13 11:44:29;;;;;;;57.22;28.95;;;15.20;99.90;;;;;;5036799;28;20041;-82
2023/12/13 11:47:03;;;;;;;56.38;28.27;;;15.60;99.90;;;;;;5046109;28;20499;-83
2023/12/13 11:49:29;;;;;;;63.25;31.60;;;13.90;99.90;;;;;;5017941;28;20176;-80
2023/12/13 11:51:56;;;;;;;65.15;31.10;;;14.10;99.90;;;;;;5035535;28;20060;-81
2023/12/13 11:54:23;;;;;;;63.88;32.40;;;13.80;99.90;;;;;;5020658;28;20527;-82
2023/12/13 11:56:49;;;;;;;62.83;32.25;;;14.10;99.90;;;;;;5016417;28;20136;-80
2023/12/13 11:59:14;;;;;;;67.97;34.00;;;14.20;99.90;;;;;;5025444;28;20120;-77
2023/12/13 12:01:40;;;;;;;63.58;31.23;;;13.90;99.90;;;;;;5015809;28;20116;-82
2023/12/13 12:04:07;;;;;;;54.25;29.45;;;13.80;99.90;;;;;;5023247;28;20029;-83
2023/12/13 12:06:33;;;;;;;51.65;29.35;;;15.20;99.90;;;;;;5025257;28;20131;-81
2023/12/13 12:09:03;;;;;;;52.97;28.92;;;14.10;99.90;;;;;;5022567;28;20219;-82
2023/12/13 12:11:29;;;;;;;59.63;29.60;;;14.10;99.90;;;;;;5016209;28;20067;-82
2023/12/13 12:13:55;;;;;;;35.08;22.75;;;15.20;99.90;;;;;;5006571;28;20454;-82
2023/12/13 12:16:21;;;;;;;34.15;20.88;;;14.90;99.90;;;;;;5032336;28;20493;-82
2023/12/13 12:18:47;;;;;;;28.40;18.75;;;13.50;99.90;;;;;;5036057;28;20045;-83
2023/12/13 12:21:13;;;;;;;19.52;13.95;;;15.10;99.90;;;;;;5015676;28;20087;-82
2023/12/13 12:23:40;;;;;;;17.20;11.88;;;13.70;99.90;;;;;;4999140;28;20032;-83